Time;durP1;ratioP1;P1;durP2;ratioP2;P2;SDS_P1;SDS_P2;PMS_P1;PMS_P2;Temp;Humidity;BMP_temperature;BMP_pressure;BME280_temperature;BME280_humidity;BME280_pressure;Samples;Min_cycle;Max_cycle;Signal;HPM_P1;HPM_P2
2022/02/03 00:03:12;;;;;;;9.93;6.28;;;;;;;0.88;70.15;94128.09;5129270;27;20042;-65
2022/02/03 00:06:06;;;;;;;8.07;6.32;;;;;;;0.83;69.92;94124.97;5120955;28;20024;-66
2022/02/03 00:08:48;;;;;;;10.05;6.38;;;;;;;0.79;69.89;94127.78;5099527;28;20525;-65
2022/02/03 00:11:39;;;;;;;8.75;5.93;;;;;;;0.83;69.85;94130.06;5110488;28;20048;-65
2022/02/03 00:25:32;;;;;;;9.10;6.70;;;;;;;1.39;67.74;94148.25;5149005;27;20377;-67
2022/02/03 00:28:18;;;;;;;8.65;6.78;;;;;;;1.31;68.51;94146.16;5148458;27;20039;-67
2022/02/03 00:49:19;;;;;;;11.85;6.82;;;;;;;0.91;70.40;94162.09;5149117;27;20266;-67
2022/02/03 00:51:51;;;;;;;8.98;6.95;;;;;;;0.76;70.85;94164.59;5140084;27;20028;-67
2022/02/03 00:54:19;;;;;;;12.80;6.88;;;;;;;0.64;71.88;94163.53;5110908;28;20520;-67
2022/02/03 00:56:53;;;;;;;11.88;7.80;;;;;;;0.40;72.86;94136.72;5126134;27;20492;-67
2022/02/03 00:59:27;;;;;;;9.82;7.50;;;;;;;0.60;72.91;94164.59;5111632;27;20034;-67
2022/02/03 01:01:53;;;;;;;11.20;7.72;;;;;;;0.62;73.03;94164.50;5106536;28;20115;-67
2022/02/03 01:04:18;;;;;;;9.02;7.13;;;;;;;0.59;72.78;94167.25;5122868;27;20042;-67
2022/02/03 01:06:51;;;;;;;10.25;7.50;;;;;;;0.65;72.65;94166.91;5114017;27;20030;-67
2022/02/03 01:09:18;;;;;;;11.60;7.13;;;;;;;0.58;72.65;94171.50;5106367;28;20040;-67
2022/02/03 01:11:46;;;;;;;10.77;8.05;;;;;;;0.60;72.48;94166.31;5120700;27;20038;-67
2022/02/03 01:14:18;;;;;;;11.68;8.10;;;;;;;0.55;72.88;94169.13;5106215;28;20119;-67
2022/02/03 01:17:04;;;;;;;10.43;7.85;;;;;;;0.54;72.93;94166.66;5102730;27;20040;-67
2022/02/03 01:43:42;;;;;;;12.20;8.90;;;;;;;0.51;73.59;94174.50;5128965;27;20035;-67
2022/02/03 01:46:15;;;;;;;11.52;8.75;;;;;;;0.63;73.60;94189.16;5112479;28;20071;-67
2022/02/03 01:53:57;;;;;;;10.98;8.07;;;;;;;0.75;72.77;94192.78;5117390;27;20123;-67
2022/02/03 01:56:24;;;;;;;10.98;8.63;;;;;;;0.68;73.45;94191.47;5116000;27;20023;-68
2022/02/03 01:58:58;;;;;;;10.85;8.18;;;;;;;0.71;73.38;94202.34;5114244;27;20037;-67
2022/02/03 02:01:27;;;;;;;12.68;8.98;;;;;;;0.76;74.16;94205.50;5132600;27;20055;-68
2022/02/03 02:04:17;;;;;;;12.25;9.18;;;;;;;0.82;73.43;94196.66;5131840;27;20035;-67
2022/02/03 02:07:25;;;;;;;12.18;8.23;;;;;;;0.78;73.31;94198.56;5099457;27;20024;-67
2022/02/03 02:13:09;;;;;;;11.45;8.45;;;;;;;0.80;73.60;94211.25;5085884;28;20036;-67
2022/02/03 02:44:01;;;;;;;10.57;7.50;;;;;;;0.74;73.36;94245.66;5131983;27;20070;-67
2022/02/03 02:46:49;;;;;;;9.75;7.32;;;;;;;0.70;73.04;94241.63;5132950;27;20115;-67
2022/02/03 02:49:23;;;;;;;10.93;8.05;;;;;;;0.73;72.76;94251.69;5132071;27;20031;-67
2022/02/03 02:51:55;;;;;;;9.32;7.20;;;;;;;0.81;72.56;94254.66;5097452;28;20482;-67
2022/02/03 03:37:58;;;;;;;9.55;7.70;;;;;;;0.92;71.77;94295.00;5098381;28;20038;-67
2022/02/03 03:40:23;;;;;;;10.90;7.88;;;;;;;0.78;71.60;94290.63;5118475;27;20031;-67
2022/02/03 03:42:58;;;;;;;10.00;7.65;;;;;;;0.87;71.42;94295.25;5098279;27;20079;-67
2022/02/03 03:45:23;;;;;;;9.50;7.38;;;;;;;0.86;71.56;94296.16;5112477;27;20030;-67
2022/02/03 03:47:48;;;;;;;10.13;8.05;;;;;;;0.85;71.56;94298.78;5130327;27;20255;-67
2022/02/03 03:50:16;;;;;;;10.25;8.05;;;;;;;0.82;71.46;94296.41;5113396;27;20038;-67
2022/02/03 03:52:57;;;;;;;10.68;7.75;;;;;;;0.93;71.00;94303.50;5100592;28;20118;-67
2022/02/03 03:55:35;;;;;;;11.98;7.95;;;;;;;0.93;70.95;94308.63;5090137;28;20039;-67
2022/02/03 05:03:51;;;;;;;9.88;7.60;;;;;;;0.63;70.96;94417.50;5093219;28;20051;-67
2022/02/03 05:07:05;;;;;;;13.85;8.88;;;;;;;0.65;71.18;94420.00;5096464;27;20505;-67
2022/02/03 05:33:12;;;;;;;25.77;20.23;;;;;;;0.66;70.36;94470.22;5124268;27;20130;-67
2022/02/03 06:05:16;;;;;;;16.45;9.50;;;;;;;0.64;69.28;94530.81;5114242;27;20036;-67
2022/02/03 06:07:56;;;;;;;21.80;13.30;;;;;;;0.64;69.43;94530.81;5112822;28;20408;-67
2022/02/03 06:21:50;;;;;;;23.00;12.23;;;;;;;0.47;69.39;94546.97;5109487;27;20034;-67
2022/02/03 06:23:51;;;;;;;21.55;9.02;;;;;;;0.52;68.96;94554.44;5106058;27;20050;-67
2022/02/03 06:29:02;;;;;;;14.68;9.75;;;;;;;0.52;68.75;94564.66;5114725;27;20046;-67
2022/02/03 06:31:28;;;;;;;10.07;7.88;;;;;;;0.62;68.31;94579.50;5107667;28;20031;-68
2022/02/03 06:33:54;;;;;;;10.95;7.80;;;;;;;0.61;68.39;94584.66;5116194;27;20035;-67
2022/02/03 06:36:20;;;;;;;12.75;8.48;;;;;;;0.65;68.54;94589.56;5111824;27;20143;-66
2022/02/03 06:38:45;;;;;;;10.82;7.85;;;;;;;0.68;67.99;94580.94;5117048;27;20043;-67
2022/02/03 06:41:11;;;;;;;9.90;7.35;;;;;;;0.65;68.33;94587.00;5112213;27;20027;-66
2022/02/03 06:43:36;;;;;;;10.40;7.80;;;;;;;0.64;68.18;94589.63;5110718;28;20036;-67
2022/02/03 06:46:07;;;;;;;9.93;7.68;;;;;;;0.60;67.80;94603.47;5083414;28;20035;-67
2022/02/03 06:48:33;;;;;;;10.23;7.57;;;;;;;0.58;68.74;94603.53;5110664;28;20173;-67
2022/02/03 06:51:07;;;;;;;10.45;7.30;;;;;;;0.62;68.04;94611.91;5115732;27;20065;-67
2022/02/03 06:53:37;;;;;;;8.75;6.40;;;;;;;0.56;67.88;94613.03;5100114;28;20046;-67
2022/02/03 06:56:11;;;;;;;8.90;7.15;;;;;;;0.63;68.29;94618.66;5112014;27;20481;-67
2022/02/03 06:58:43;;;;;;;9.82;7.63;;;;;;;0.65;68.29;94619.44;5116095;27;20092;-67
2022/02/03 07:01:18;;;;;;;12.93;8.23;;;;;;;0.57;68.20;94619.78;5117787;27;20024;-67
2022/02/03 07:03:52;;;;;;;8.65;6.60;;;;;;;0.53;67.97;94618.28;5094882;28;20040;-67
2022/02/03 07:06:18;;;;;;;8.80;6.97;;;;;;;0.48;67.78;94619.41;5097456;27;20081;-67
2022/02/03 07:08:45;;;;;;;10.35;7.70;;;;;;;0.54;68.22;94617.38;5104954;27;20043;-67
2022/02/03 07:11:11;;;;;;;10.05;6.85;;;;;;;0.66;68.03;94627.00;5110057;28;20030;-67
2022/02/03 07:13:36;;;;;;;8.85;6.68;;;;;;;0.63;67.60;94634.00;5114261;27;20039;-67
2022/02/03 07:16:02;;;;;;;12.57;7.60;;;;;;;0.67;67.37;94640.66;5111675;27;20023;-66
2022/02/03 07:18:28;;;;;;;12.75;8.10;;;;;;;0.68;67.50;94642.28;5117857;27;20129;-67
2022/02/03 07:20:54;;;;;;;8.82;6.55;;;;;;;0.68;67.42;94642.28;5096846;27;20035;-67
2022/02/03 07:23:19;;;;;;;12.02;8.05;;;;;;;0.63;66.94;94644.22;5103578;27;20049;-67
2022/02/03 07:25:44;;;;;;;10.35;7.93;;;;;;;0.70;68.15;94649.88;5109388;27;20031;-67
2022/02/03 07:28:12;;;;;;;17.23;11.00;;;;;;;0.75;67.32;94650.50;5077032;28;20036;-66
2022/02/03 07:30:37;;;;;;;10.60;7.43;;;;;;;0.76;67.42;94650.44;5071822;28;20035;-67
2022/02/03 07:33:04;;;;;;;8.43;6.70;;;;;;;0.78;66.94;94658.88;5101657;28;20031;-67
2022/02/03 07:35:32;;;;;;;10.18;7.00;;;;;;;0.72;66.77;94654.03;5107002;28;20038;-67
2022/02/03 07:38:00;;;;;;;9.75;7.05;;;;;;;0.84;67.08;94663.69;5067387;28;20040;-66
2022/02/03 07:40:26;;;;;;;10.40;7.03;;;;;;;0.87;66.94;94666.09;5096829;27;20031;-66
2022/02/03 07:42:52;;;;;;;7.53;6.35;;;;;;;0.94;65.99;94673.47;5101889;28;21156;-66
2022/02/03 07:45:19;;;;;;;11.95;8.40;;;;;;;0.92;66.88;94671.00;5099636;28;20042;-67
2022/02/03 07:47:45;;;;;;;11.80;7.18;;;;;;;1.03;66.29;94678.16;5113875;27;20036;-67
2022/02/03 07:50:11;;;;;;;12.98;8.73;;;;;;;1.00;65.94;94688.53;5071269;28;20051;-66
2022/02/03 07:52:36;;;;;;;8.82;6.90;;;;;;;1.04;66.00;94695.16;5081498;28;20054;-67
2022/02/03 07:55:02;;;;;;;11.10;7.95;;;;;;;1.01;66.78;94696.13;5112186;27;20043;-68
2022/02/03 07:57:27;;;;;;;11.65;7.40;;;;;;;1.03;66.33;94698.63;5110306;27;20030;-67
2022/02/03 07:59:55;;;;;;;10.52;7.68;;;;;;;1.02;66.45;94691.84;5090597;28;20542;-67
2022/02/03 08:02:20;;;;;;;13.00;8.10;;;;;;;1.07;66.29;94703.53;5100763;28;20400;-67
2022/02/03 08:04:47;;;;;;;10.00;8.40;;;;;;;1.00;66.02;94709.00;5092344;28;20038;-67
2022/02/03 08:07:16;;;;;;;10.70;7.78;;;;;;;1.04;66.21;94710.53;5116026;27;20164;-66
2022/02/03 08:09:55;;;;;;;11.35;7.68;;;;;;;0.98;66.15;94709.09;5114258;27;20032;-67
2022/02/03 08:12:24;;;;;;;11.13;7.75;;;;;;;0.99;66.37;94722.69;5101598;28;20042;-67
2022/02/03 08:14:51;;;;;;;11.65;7.80;;;;;;;1.06;66.64;94724.09;5093655;28;20088;-66
2022/02/03 08:17:23;;;;;;;9.95;7.38;;;;;;;0.98;66.13;94734.66;5112421;28;20031;-66
2022/02/03 08:22:22;;;;;;;11.05;8.00;;;;;;;1.06;66.07;94734.31;5088446;28;20058;-67
2022/02/03 08:24:51;;;;;;;13.77;8.05;;;;;;;1.02;66.69;94748.97;5107368;28;20047;-68
2022/02/03 08:27:38;;;;;;;11.07;8.07;;;;;;;1.03;66.49;94735.28;5109081;28;20028;-67
2022/02/03 08:32:42;;;;;;;;;;;;;;;0.98;66.00;94742.34;5102855;28;20036;-67
2022/02/03 08:35:19;;;;;;;13.25;8.23;;;;;;;0.94;66.75;94745.09;5082818;28;20011;-67
2022/02/03 08:40:32;;;;;;;10.15;7.70;;;;;;;0.88;66.85;94751.31;5093105;27;20038;-67
2022/02/03 08:42:57;;;;;;;9.05;6.95;;;;;;;0.97;66.78;94758.56;5112742;27;20412;-67
2022/02/03 08:45:23;;;;;;;9.88;7.35;;;;;;;0.91;66.99;94760.59;5096052;27;20037;-69
2022/02/03 08:47:48;;;;;;;12.10;7.85;;;;;;;1.04;67.26;94767.63;5100596;28;20031;-67
2022/02/03 08:50:14;;;;;;;15.82;10.25;;;;;;;0.94;66.40;94766.38;5109040;27;20031;-67
2022/02/03 08:52:54;;;;;;;11.20;9.05;;;;;;;0.94;66.79;94773.25;5111093;28;20393;-67
2022/02/03 09:54:54;;;;;;;15.40;10.57;;;;;;;1.56;64.70;94833.44;5101016;27;20046;-66
2022/02/03 10:00:26;;;;;;;14.25;11.25;;;;;;;1.71;64.51;94842.16;5115498;27;20062;-67
2022/02/03 10:02:58;;;;;;;12.63;9.13;;;;;;;1.72;64.12;94829.25;5114052;27;20039;-67
2022/02/03 10:05:43;;;;;;;12.95;9.20;;;;;;;1.75;63.93;94830.84;5093615;27;20027;-66
2022/02/03 10:08:12;;;;;;;11.68;9.05;;;;;;;1.79;64.25;94834.94;5120907;27;20382;-66
2022/02/03 10:10:38;;;;;;;12.40;8.80;;;;;;;1.86;64.22;94832.91;5089183;28;20038;-67
2022/02/03 10:13:18;;;;;;;11.52;9.65;;;;;;;1.92;63.94;94827.47;5089123;28;20035;-66
2022/02/03 10:15:44;;;;;;;12.30;9.48;;;;;;;1.91;63.48;94830.94;5072357;28;20115;-67
2022/02/03 10:18:26;;;;;;;12.07;8.48;;;;;;;1.91;63.27;94841.19;5079630;28;20039;-67
2022/02/03 10:20:51;;;;;;;;;;;;;;;1.96;63.65;94837.50;5100528;27;20500;-67
2022/02/03 10:23:21;;;;;;;14.23;10.40;;;;;;;1.95;63.73;94837.56;5115554;27;19926;-66
2022/02/03 10:25:50;;;;;;;10.95;8.60;;;;;;;2.05;63.12;94833.66;5086226;28;20036;-66
2022/02/03 10:28:16;;;;;;;11.15;8.13;;;;;;;2.06;63.41;94834.50;5085020;28;20062;-67
2022/02/03 10:30:55;;;;;;;12.90;8.88;;;;;;;2.06;63.43;94829.38;5111168;27;20476;-66
2022/02/03 10:33:53;;;;;;;14.25;11.82;;;;;;;2.12;63.36;94834.22;5112400;27;20101;-66
2022/02/03 10:36:44;;;;;;;14.55;11.32;;;;;;;2.18;63.75;94839.03;5094248;28;20112;-66
2022/02/03 10:39:38;;;;;;;14.88;10.80;;;;;;;2.21;63.25;94839.69;5111748;27;20136;-66
2022/02/03 10:45:07;;;;;;;15.75;10.95;;;;;;;2.21;62.46;94828.63;5116107;27;20108;-67
2022/02/03 11:00:27;;;;;;;25.50;20.83;;;;;;;2.74;61.31;94819.94;5103105;28;20046;-66
2022/02/03 11:03:09;;;;;;;10.75;7.80;;;;;;;2.74;59.90;94819.09;5110747;27;20525;-67
2022/02/03 11:08:16;;;;;;;44.28;35.45;;;;;;;2.97;60.37;94818.72;5093442;28;20120;-67
2022/02/03 11:10:45;;;;;;;12.93;9.48;;;;;;;2.94;59.75;94813.75;5100562;27;20115;-66
2022/02/03 11:13:10;;;;;;;19.35;15.30;;;;;;;3.04;59.77;94814.94;5102470;28;20036;-67
2022/02/03 11:15:36;;;;;;;11.85;9.50;;;;;;;3.17;59.15;94804.00;5096432;27;20046;-66
2022/02/03 11:18:06;;;;;;;19.98;15.95;;;;;;;3.34;59.50;94801.31;5098688;27;20085;-66
2022/02/03 11:20:32;;;;;;;27.60;19.70;;;;;;;3.49;59.35;94807.38;5088034;27;20031;-67
2022/02/03 11:25:52;;;;;;;10.57;7.55;;;;;;;3.65;56.87;94815.03;5109646;27;20178;-66
2022/02/03 12:12:37;;;;;;;11.95;8.60;;;;;;;3.67;56.93;94802.94;5122245;27;20046;-67
2022/02/03 12:18:58;;;;;;;12.57;9.05;;;;;;;3.65;56.80;94815.03;5076162;28;20119;-66
2022/02/03 12:21:43;;;;;;;17.60;13.27;;;;;;;3.69;58.26;94819.13;5106037;28;20023;-66
2022/02/03 12:26:51;;;;;;;23.48;15.02;;;;;;;3.77;56.57;94817.78;5110186;28;20024;-66
2022/02/03 12:29:23;;;;;;;17.67;12.65;;;;;;;3.82;56.55;94825.22;5092620;28;20063;-67
2022/02/03 12:32:10;;;;;;;;;;;;;;;3.76;57.51;94828.13;5113823;28;20038;-67
2022/02/03 12:43:02;;;;;;;11.30;8.07;;;;;;;3.64;57.21;94826.25;5095227;28;20028;-67
2022/02/03 12:45:27;;;;;;;11.73;8.50;;;;;;;3.68;57.62;94822.59;5098765;28;20040;-66
2022/02/03 12:47:58;;;;;;;12.02;8.50;;;;;;;3.70;57.46;94825.91;5109035;28;20036;-66
2022/02/03 12:50:44;;;;;;;11.70;9.15;;;;;;;3.68;57.74;94820.03;5109260;27;20051;-67
2022/02/03 12:53:09;;;;;;;12.23;8.57;;;;;;;3.69;58.14;94826.81;5107577;28;20055;-66
2022/02/03 12:55:36;;;;;;;15.15;10.90;;;;;;;3.66;58.09;94829.56;5122695;28;20024;-66
2022/02/03 12:58:09;;;;;;;14.00;9.32;;;;;;;3.63;57.79;94833.13;5089703;28;20036;-66
2022/02/03 13:00:45;;;;;;;10.32;7.78;;;;;;;3.75;58.67;94836.75;5106393;28;20028;-67
2022/02/03 13:03:12;;;;;;;7.70;6.50;;;;;;;3.67;57.80;94828.63;5108243;28;20036;-66
2022/02/03 13:05:40;;;;;;;8.18;6.72;;;;;;;3.70;57.10;94834.44;5078829;28;20028;-66
2022/02/03 13:08:06;;;;;;;12.15;7.30;;;;;;;3.78;57.34;94836.56;5071421;28;20036;-66
2022/02/03 13:10:35;;;;;;;21.63;9.90;;;;;;;3.83;57.69;94838.91;5095763;28;20052;-66
2022/02/03 13:14:07;;;;;;;16.42;9.80;;;;;;;3.75;58.34;94847.03;5112361;28;20031;-66
2022/02/03 13:16:09;;;;;;;11.23;8.48;;;;;;;3.66;59.61;94845.81;5106453;28;20039;-66
2022/02/03 13:18:39;;;;;;;12.00;9.07;;;;;;;3.66;60.25;94847.56;5094568;28;20084;-66
2022/02/03 13:24:37;;;;;;;13.55;9.85;;;;;;;3.71;59.44;94854.09;5096796;28;20056;-66
2022/02/03 13:26:56;;;;;;;14.02;9.82;;;;;;;3.72;59.59;94858.31;5098689;27;20516;-66
2022/02/03 13:29:30;;;;;;;13.80;11.27;;;;;;;3.70;59.90;94867.84;5110370;28;20024;-66
2022/02/03 13:32:08;;;;;;;11.20;8.63;;;;;;;3.56;62.42;94875.47;5092129;28;20458;-67
2022/02/03 13:34:45;;;;;;;12.40;10.35;;;;;;;3.22;64.57;94879.84;5095783;28;20035;-67
2022/02/03 13:39:47;;;;;;;57.63;24.83;;;;;;;2.86;66.90;94892.88;5112360;27;20097;-66
2022/02/03 13:42:13;;;;;;;22.20;14.23;;;;;;;2.79;68.15;94899.22;5099947;27;20028;-67
2022/02/03 13:44:38;;;;;;;15.57;12.90;;;;;;;2.56;68.70;94898.63;5115227;27;20027;-66
2022/02/03 13:47:23;;;;;;;14.02;11.35;;;;;;;2.58;69.24;94909.66;5073740;28;20035;-66
2022/02/03 13:50:12;;;;;;;11.90;10.65;;;;;;;2.53;70.32;94910.78;5087093;27;20046;-66
2022/02/03 13:52:50;;;;;;;13.15;9.82;;;;;;;2.49;70.11;94907.56;5099389;27;20027;-66
2022/02/03 14:22:09;;;;;;;15.95;9.70;;;;;;;1.95;71.45;94915.28;5107573;28;20042;-66
2022/02/03 14:29:49;;;;;;;14.80;10.45;;;;;;;1.94;71.43;94915.34;5105099;27;20428;-66
2022/02/03 14:32:18;;;;;;;24.77;13.90;;;;;;;1.75;72.04;94913.66;5111579;28;20425;-67
2022/02/03 14:34:44;;;;;;;14.82;10.77;;;;;;;1.75;71.71;94923.06;5091738;28;20055;-66
2022/02/03 14:42:12;;;;;;;18.27;10.30;;;;;;;1.65;72.23;94922.69;5126657;27;19955;-66
2022/02/03 14:44:40;;;;;;;12.02;8.13;;;;;;;1.65;71.86;94927.81;5094773;28;20074;-66
2022/02/03 14:47:09;;;;;;;77.15;38.88;;;;;;;1.61;71.48;94928.81;5112763;28;20023;-67
2022/02/03 14:49:35;;;;;;;54.03;28.00;;;;;;;1.58;71.51;94939.22;5113604;27;20023;-67
2022/02/03 14:52:24;;;;;;;41.45;22.75;;;;;;;1.66;71.11;94938.88;5094611;28;20414;-67
2022/02/03 15:00:20;;;;;;;42.33;25.42;;;;;;;1.52;66.54;94942.88;5115351;27;20075;-67
2022/02/03 15:02:46;;;;;;;41.53;29.15;;;;;;;1.56;67.04;94941.84;5118490;27;20030;-66
2022/02/03 15:05:21;;;;;;;52.42;40.03;;;;;;;1.60;65.68;94945.09;5111307;28;20581;-66
2022/02/03 15:07:46;;;;;;;29.58;18.38;;;;;;;1.64;65.64;94950.91;5114231;27;20019;-66
2022/02/03 15:10:29;;;;;;;37.97;22.20;;;;;;;1.56;65.60;94959.78;5115543;27;20382;-66
2022/02/03 15:13:03;;;;;;;25.48;14.60;;;;;;;1.61;64.84;94956.16;5112214;28;20031;-68
2022/02/03 15:15:29;;;;;;;30.73;19.35;;;;;;;1.59;64.59;94957.97;5095187;28;20059;-66
2022/02/03 15:17:55;;;;;;;24.55;19.73;;;;;;;1.61;64.33;94961.28;5120640;27;20082;-66
2022/02/03 15:20:20;;;;;;;21.05;15.15;;;;;;;1.51;64.02;94978.81;5094166;28;20032;-66
2022/02/03 15:22:45;;;;;;;21.92;18.70;;;;;;;1.51;64.97;94961.72;5119791;27;20408;-67
2022/02/03 15:25:11;;;;;;;44.92;25.27;;;;;;;1.45;65.17;94966.25;5086353;28;20108;-67
2022/02/03 15:27:38;;;;;;;36.53;21.75;;;;;;;1.43;64.79;94978.31;5088646;27;20508;-66
2022/02/03 15:30:04;;;;;;;17.98;12.18;;;;;;;1.42;63.59;94986.88;5103442;27;20027;-67
2022/02/03 15:32:36;;;;;;;17.35;12.40;;;;;;;1.34;63.80;94990.63;5115447;27;20027;-69
2022/02/03 15:35:06;;;;;;;16.67;11.40;;;;;;;1.32;63.31;94982.19;5084730;28;20028;-67
2022/02/03 15:37:33;;;;;;;16.58;10.20;;;;;;;1.28;63.56;94996.03;5085475;27;20024;-67
2022/02/03 15:40:03;;;;;;;17.52;10.75;;;;;;;1.34;63.59;94987.25;5109389;27;20112;-67
2022/02/03 15:42:30;;;;;;;24.10;13.15;;;;;;;1.34;62.28;94987.25;5111412;27;20110;-68
2022/02/03 15:44:57;;;;;;;21.17;12.48;;;;;;;1.30;61.06;95003.63;5100903;27;20460;-67
2022/02/03 15:47:32;;;;;;;27.48;16.15;;;;;;;1.33;60.45;95014.53;5130906;27;20019;-68
2022/02/03 16:17:20;;;;;;;14.70;11.05;;;;;;;1.50;57.60;95074.44;5113355;28;20470;-67
2022/02/03 16:20:10;;;;;;;13.02;9.05;;;;;;;1.44;58.10;95077.25;5108236;28;20023;-68
2022/02/03 16:25:26;;;;;;;9.70;6.88;;;;;;;1.32;58.68;95082.00;5089977;28;20091;-67
2022/02/03 16:54:34;;;;;;;17.45;12.60;;;;;;;1.21;58.30;95120.03;5109950;28;20046;-67
2022/02/03 16:57:04;;;;;;;14.73;10.10;;;;;;;0.90;58.66;95125.56;5072948;28;20028;-69
2022/02/03 16:59:32;;;;;;;18.00;10.57;;;;;;;1.00;58.06;95146.47;5102225;27;20031;-68
2022/02/03 17:01:57;;;;;;;12.40;9.23;;;;;;;1.06;58.88;95148.81;5120987;27;20039;-68
2022/02/03 17:04:23;;;;;;;13.32;11.30;;;;;;;0.96;59.01;95150.91;5118398;27;20405;-69
2022/02/03 17:06:48;;;;;;;13.05;10.55;;;;;;;1.03;59.47;95147.22;5108809;27;20031;-69
2022/02/03 17:09:14;;;;;;;23.90;18.27;;;;;;;1.04;59.43;95155.72;5097896;27;20043;-69
2022/02/03 17:11:39;;;;;;;23.45;14.98;;;;;;;0.98;58.95;95156.78;5118690;27;20062;-70
2022/02/03 17:14:06;;;;;;;16.30;10.13;;;;;;;0.96;57.86;95157.75;5122083;27;20028;-69
2022/02/03 17:16:31;;;;;;;23.10;16.83;;;;;;;0.85;59.00;95150.50;5127409;27;20046;-70
2022/02/03 17:18:57;;;;;;;24.15;17.15;;;;;;;0.81;58.92;95164.31;5130237;27;20035;-69
2022/02/03 17:21:26;;;;;;;25.70;14.30;;;;;;;0.86;58.52;95163.22;5111101;27;20027;-70
2022/02/03 17:23:52;;;;;;;24.58;15.15;;;;;;;0.86;58.84;95165.78;5094503;27;20071;-68
2022/02/03 17:26:39;;;;;;;24.02;15.30;;;;;;;0.80;58.20;95158.34;5118964;27;20035;-69
2022/02/03 17:29:18;;;;;;;27.42;19.20;;;;;;;0.83;58.45;95178.69;5117922;27;20031;-69
2022/02/03 17:45:56;;;;;;;26.65;18.13;;;;;;;0.62;58.89;95197.41;5113304;27;20071;-68
2022/02/03 18:09:43;;;;;;;24.90;16.48;;;;;;;0.25;60.31;95211.53;5119510;27;20553;-68
2022/02/03 18:17:38;;;;;;;47.35;24.95;;;;;;;0.28;60.15;95208.91;5112259;28;20103;-68
2022/02/03 18:30:53;;;;;;;24.73;16.15;;;;;;;0.15;60.09;95226.38;5118487;27;20489;-66
2022/02/03 18:51:30;;;;;;;46.15;24.88;;;;;;;0.26;60.17;95238.78;5111174;27;20029;-67
2022/02/03 18:54:10;;;;;;;26.38;14.57;;;;;;;0.24;60.15;95238.00;5100518;28;20032;-67
2022/02/03 18:56:46;;;;;;;17.58;12.48;;;;;;;0.22;60.60;95247.44;5095912;27;20031;-67
2022/02/03 19:01:50;;;;;;;18.92;12.38;;;;;;;0.26;59.77;95249.00;5126907;27;20687;-67
2022/02/03 19:10:14;;;;;;;14.00;8.00;;;;;;;0.20;60.76;95259.44;5115725;27;20095;-67
2022/02/03 19:26:44;;;;;;;13.45;8.57;;;;;;;0.00;60.05;95244.81;5101141;28;20092;-67
2022/02/03 20:01:44;;;;;;;10.82;6.93;;;;;;;-0.19;60.94;95236.94;5097943;27;20034;-69
2022/02/03 20:07:01;;;;;;;12.20;7.00;;;;;;;-0.32;60.58;95263.78;5094186;28;20550;-68
2022/02/03 20:09:56;;;;;;;9.85;6.70;;;;;;;-0.24;60.37;95257.53;5110761;28;20055;-68
2022/02/03 20:12:22;;;;;;;15.30;8.90;;;;;;;-0.32;60.55;95243.34;5098629;28;20041;-69
2022/02/03 20:14:49;;;;;;;12.52;7.90;;;;;;;-0.26;60.92;95255.91;5093871;28;20065;-68
2022/02/03 20:17:19;;;;;;;10.35;7.10;;;;;;;-0.22;60.70;95247.28;5088813;28;20023;-67
2022/02/03 20:19:45;;;;;;;9.45;6.55;;;;;;;-0.23;60.96;95255.81;5111010;28;20057;-66
2022/02/03 20:22:10;;;;;;;12.25;7.82;;;;;;;-0.34;61.14;95250.22;5092333;28;20023;-67
2022/02/03 20:24:36;;;;;;;14.60;9.93;;;;;;;-0.32;61.44;95245.91;5112003;27;20425;-67
2022/02/03 20:27:02;;;;;;;13.68;9.02;;;;;;;-0.41;60.64;95248.78;5108345;28;20023;-67
2022/02/03 20:29:27;;;;;;;17.85;11.65;;;;;;;-0.51;61.11;95238.84;5092333;28;20059;-67
2022/02/03 20:31:53;;;;;;;9.70;6.93;;;;;;;-0.38;61.72;95256.31;5076140;28;20028;-67
2022/02/03 20:34:18;;;;;;;20.73;11.95;;;;;;;-0.44;61.29;95247.16;5111103;27;20031;-67
2022/02/03 20:36:44;;;;;;;9.38;6.20;;;;;;;-0.50;61.59;95243.09;5113318;28;20020;-67
2022/02/03 20:39:10;;;;;;;16.88;9.52;;;;;;;-0.50;61.33;95252.47;5104086;27;20032;-67
2022/02/03 20:41:35;;;;;;;14.18;8.45;;;;;;;-0.51;61.39;95251.59;5094009;28;20035;-67
2022/02/03 20:44:01;;;;;;;25.02;13.80;;;;;;;-0.53;61.02;95250.84;5108221;27;20092;-68
2022/02/03 20:46:26;;;;;;;16.30;9.80;;;;;;;-0.59;61.74;95255.28;5095158;28;20028;-67
2022/02/03 20:48:52;;;;;;;14.90;8.40;;;;;;;-0.56;61.71;95247.53;5079235;28;20105;-68
2022/02/03 20:51:19;;;;;;;11.60;8.40;;;;;;;-0.52;61.47;95251.66;5092412;28;20032;-67
2022/02/03 20:53:45;;;;;;;15.32;10.30;;;;;;;-0.57;61.89;95246.72;5112607;27;20077;-68
2022/02/03 20:56:11;;;;;;;13.32;9.45;;;;;;;-0.62;61.44;95246.00;5095092;28;20404;-68
2022/02/03 20:58:38;;;;;;;8.75;6.50;;;;;;;-0.55;61.76;95250.06;5086769;28;20035;-68
2022/02/03 21:01:11;;;;;;;7.25;5.80;;;;;;;-0.56;61.75;95237.31;5092619;28;20051;-68
2022/02/03 21:03:41;;;;;;;7.72;5.00;;;;;;;-0.65;62.35;95237.63;5094095;28;20074;-68
2022/02/03 21:06:09;;;;;;;9.43;6.55;;;;;;;-0.74;62.26;95244.69;5095261;28;20035;-68
2022/02/03 21:08:36;;;;;;;8.48;5.80;;;;;;;-0.70;61.83;95240.31;5095944;28;20486;-68
2022/02/03 21:11:02;;;;;;;9.00;6.30;;;;;;;-0.66;61.71;95248.75;5112237;27;20043;-68
2022/02/03 21:13:27;;;;;;;7.03;5.50;;;;;;;-0.65;62.15;95245.28;5114202;27;20445;-68
2022/02/03 21:15:54;;;;;;;7.57;5.53;;;;;;;-0.64;62.05;95254.59;5090951;28;20028;-68
2022/02/03 21:18:20;;;;;;;8.82;5.65;;;;;;;-0.71;62.01;95253.97;5085340;27;20450;-68
2022/02/03 21:20:47;;;;;;;9.52;6.22;;;;;;;-0.66;61.28;95252.13;5095630;28;20024;-68
2022/02/03 21:23:12;;;;;;;12.63;7.32;;;;;;;-0.73;61.09;95263.38;5104366;27;20493;-68
2022/02/03 21:25:42;;;;;;;12.93;7.75;;;;;;;-0.67;61.18;95255.53;5104574;28;20031;-67
2022/02/03 21:28:14;;;;;;;16.42;8.30;;;;;;;-0.70;61.25;95250.53;5111920;27;20485;-67
2022/02/03 21:30:40;;;;;;;15.70;8.05;;;;;;;-0.68;61.56;95257.25;5094264;28;20058;-68
2022/02/03 21:33:12;;;;;;;17.67;8.95;;;;;;;-0.76;61.13;95259.22;5111334;28;20471;-68
2022/02/03 21:35:42;;;;;;;15.43;7.78;;;;;;;-0.71;60.92;95253.97;5112298;28;20514;-68
2022/02/03 21:38:07;;;;;;;11.57;7.28;;;;;;;-0.73;60.65;95258.28;5081990;27;20047;-68
2022/02/03 21:40:33;;;;;;;12.77;7.90;;;;;;;-0.74;60.70;95254.06;5090133;28;20468;-68
2022/02/03 21:43:00;;;;;;;16.27;7.60;;;;;;;-0.81;60.48;95250.03;5119212;27;20035;-67
2022/02/03 21:45:27;;;;;;;12.00;6.10;;;;;;;-0.83;59.85;95259.47;5090527;28;20038;-68
2022/02/03 21:47:52;;;;;;;9.75;5.95;;;;;;;-0.83;59.76;95249.28;5097699;27;20050;-67
2022/02/03 21:50:18;;;;;;;11.85;6.22;;;;;;;-0.81;59.98;95238.09;5094988;28;20028;-67
2022/02/03 21:52:48;;;;;;;10.05;5.80;;;;;;;-0.90;60.10;95239.25;5110666;27;20051;-68
2022/02/03 21:55:14;;;;;;;10.48;5.05;;;;;;;-0.82;59.27;95243.28;5090378;28;20483;-68
2022/02/03 21:57:43;;;;;;;7.07;4.63;;;;;;;-0.84;59.92;95237.38;5097336;27;20016;-67
2022/02/03 22:00:09;;;;;;;8.73;4.90;;;;;;;-0.87;60.93;95234.94;5108831;28;20137;-68
2022/02/03 22:02:35;;;;;;;6.72;4.20;;;;;;;-0.97;60.87;95240.34;5111365;27;20393;-68
2022/02/03 22:05:02;;;;;;;6.95;4.82;;;;;;;-1.01;60.66;95246.38;5094762;27;20039;-67
2022/02/03 22:07:27;;;;;;;7.78;4.03;;;;;;;-1.06;61.05;95238.03;5103701;27;20493;-68
2022/02/03 22:09:53;;;;;;;9.40;4.88;;;;;;;-1.12;60.15;95228.88;5099612;27;20082;-68
2022/02/03 22:12:18;;;;;;;7.22;3.75;;;;;;;-1.14;60.13;95232.38;5092304;28;20031;-67
2022/02/03 22:14:43;;;;;;;6.45;4.00;;;;;;;-1.12;59.96;95233.13;5111460;28;20035;-67
2022/02/03 22:17:09;;;;;;;7.10;3.88;;;;;;;-1.23;61.23;95230.06;5110093;27;20042;-67
2022/02/03 22:19:37;;;;;;;6.70;3.60;;;;;;;-1.30;60.94;95223.50;5092257;28;20032;-67
2022/02/03 22:25:04;;;;;;;5.72;3.80;;;;;;;-1.28;60.76;95222.59;5111986;28;20510;-67
2022/02/03 22:28:30;;;;;;;6.22;3.38;;;;;;;-1.29;60.27;95235.38;5113051;27;20038;-67
2022/02/03 22:38:40;;;;;;;6.10;3.28;;;;;;;-1.39;61.07;95247.56;5108516;27;20043;-67
2022/02/03 22:46:03;;;;;;;4.22;3.13;;;;;;;-1.57;61.82;95249.75;5089798;28;20020;-67
2022/02/03 22:48:28;;;;;;;5.57;3.35;;;;;;;-1.66;61.66;95247.47;5069505;28;20126;-67
2022/02/03 22:50:55;;;;;;;5.82;3.58;;;;;;;-1.65;61.47;95253.41;5112033;27;20027;-67
2022/02/03 22:53:21;;;;;;;5.55;3.60;;;;;;;-1.69;61.88;95251.81;5111349;27;20111;-67
2022/02/03 22:55:46;;;;;;;6.13;3.35;;;;;;;-1.68;61.77;95261.13;5096609;28;20037;-67